sensor_id;sensor_type;location;lat;lon;timestamp;P1;durP1;ratioP1;P2;durP2;ratioP2
31686;SDS011;18285;51.330;4.946;2023-03-14T00:22:18;2.65;;;1.30;;
31686;SDS011;18285;51.330;4.946;2023-03-14T00:46:31;2.72;;;1.25;;
31686;SDS011;18285;51.330;4.946;2023-03-14T01:10:41;2.30;;;0.97;;
31686;SDS011;18285;51.330;4.946;2023-03-14T01:59:04;3.30;;;1.33;;
31686;SDS011;18285;51.330;4.946;2023-03-14T02:23:20;2.45;;;1.20;;
31686;SDS011;18285;51.330;4.946;2023-03-14T02:47:43;2.58;;;1.08;;
31686;SDS011;18285;51.330;4.946;2023-03-14T03:11:57;3.40;;;1.30;;
31686;SDS011;18285;51.330;4.946;2023-03-14T03:36:08;4.38;;;0.85;;
31686;SDS011;18285;51.330;4.946;2023-03-14T04:00:19;2.00;;;0.90;;
31686;SDS011;18285;51.330;4.946;2023-03-14T04:24:30;1.60;;;0.80;;
31686;SDS011;18285;51.330;4.946;2023-03-14T04:48:40;1.80;;;0.77;;
31686;SDS011;18285;51.330;4.946;2023-03-14T05:12:51;1.58;;;0.70;;
31686;SDS011;18285;51.330;4.946;2023-03-14T05:37:02;1.65;;;0.70;;
31686;SDS011;18285;51.330;4.946;2023-03-14T06:01:12;1.90;;;0.85;;
31686;SDS011;18285;51.330;4.946;2023-03-14T06:25:25;11.70;;;2.75;;
31686;SDS011;18285;51.330;4.946;2023-03-14T06:49:35;6.97;;;3.10;;
31686;SDS011;18285;51.330;4.946;2023-03-14T07:13:46;9.25;;;2.17;;
31686;SDS011;18285;51.330;4.946;2023-03-14T07:37:57;8.88;;;2.08;;
31686;SDS011;18285;51.330;4.946;2023-03-14T08:02:09;3.13;;;1.48;;
31686;SDS011;18285;51.330;4.946;2023-03-14T08:26:21;5.38;;;1.50;;
31686;SDS011;18285;51.330;4.946;2023-03-14T08:50:32;3.15;;;1.05;;
31686;SDS011;18285;51.330;4.946;2023-03-14T09:14:43;3.25;;;1.00;;
31686;SDS011;18285;51.330;4.946;2023-03-14T09:38:54;2.35;;;1.00;;
31686;SDS011;18285;51.330;4.946;2023-03-14T10:27:31;1.50;;;0.80;;
31686;SDS011;18285;51.330;4.946;2023-03-14T10:51:43;2.08;;;1.05;;
31686;SDS011;18285;51.330;4.946;2023-03-14T11:40:36;2.20;;;0.90;;
31686;SDS011;18285;51.330;4.946;2023-03-14T12:29:25;2.22;;;0.80;;
31686;SDS011;18285;51.330;4.946;2023-03-14T13:17:47;2.13;;;0.90;;
31686;SDS011;18285;51.330;4.946;2023-03-14T13:42:00;1.42;;;0.77;;
31686;SDS011;18285;51.330;4.946;2023-03-14T14:30:47;2.53;;;0.70;;
31686;SDS011;18285;51.330;4.946;2023-03-14T14:55:20;1.55;;;0.75;;
31686;SDS011;18285;51.330;4.946;2023-03-14T15:19:31;2.13;;;0.90;;
31686;SDS011;18285;51.330;4.946;2023-03-14T15:43:43;4.50;;;1.00;;
31686;SDS011;18285;51.330;4.946;2023-03-14T16:07:53;3.38;;;1.13;;
31686;SDS011;18285;51.330;4.946;2023-03-14T16:32:04;2.30;;;0.93;;
31686;SDS011;18285;51.330;4.946;2023-03-14T16:56:15;5.97;;;1.60;;
31686;SDS011;18285;51.330;4.946;2023-03-14T17:20:26;7.60;;;2.30;;
31686;SDS011;18285;51.330;4.946;2023-03-14T17:44:37;8.77;;;2.50;;
31686;SDS011;18285;51.330;4.946;2023-03-14T18:08:48;10.73;;;2.40;;
31686;SDS011;18285;51.330;4.946;2023-03-14T18:33:00;11.38;;;2.17;;
31686;SDS011;18285;51.330;4.946;2023-03-14T18:57:11;4.88;;;2.38;;
31686;SDS011;18285;51.330;4.946;2023-03-14T19:21:26;8.38;;;2.10;;
31686;SDS011;18285;51.330;4.946;2023-03-14T19:45:41;9.38;;;2.75;;
31686;SDS011;18285;51.330;4.946;2023-03-14T20:09:52;11.75;;;3.30;;
31686;SDS011;18285;51.330;4.946;2023-03-14T20:34:03;8.80;;;3.13;;
31686;SDS011;18285;51.330;4.946;2023-03-14T20:58:14;6.80;;;3.08;;
31686;SDS011;18285;51.330;4.946;2023-03-14T21:22:26;6.85;;;2.67;;
31686;SDS011;18285;51.330;4.946;2023-03-14T21:46:38;5.35;;;2.25;;
31686;SDS011;18285;51.330;4.946;2023-03-14T22:10:49;5.35;;;2.30;;
31686;SDS011;18285;51.330;4.946;2023-03-14T22:35:02;5.00;;;2.28;;
31686;SDS011;18285;51.330;4.946;2023-03-14T22:59:13;3.88;;;2.20;;
31686;SDS011;18285;51.330;4.946;2023-03-14T23:23:24;4.43;;;1.93;;
31686;SDS011;18285;51.330;4.946;2023-03-14T23:47:34;3.63;;;1.70;;
